logo dgac
Viernes 01 de Julio del 2022
Buscar por aerodromo o helipuerto
Ingrese nombre de aeródromo, localidad o designador OACI:

Aeródromo: Mataveri (PUB) (SCIP)

Ubicación: Isla de Pascua, V Región, Chile (27º 09' 53'' S, 109º 25' 19'' W) Ver ubicación en el mapa

Pistas

Orientación Dimensión Pendiente Superficie Resistencia APCH THR RWY PAPI
10/28 3300 x 45 0,90 ASPH 65 F/C/W/T
Horas de operación O/R
Elevación 69 m / 227 ft
Otra Información Adm : D.G.A.C
Uso : PUB
Ubicado a 500 m S Hanga Roa

TEL/FAX(56)322100237 / Fax: 322100245

Otra información ver AIP-Chile Volumen I AD 2.6-1 SCIP

CCCM/FCCV Descargar
andera de Chile
Mapa de  Mataveri (PUB) (SCIP)

Último METAR

METAR SCIP 011400Z 01005KT 9999 SCT030 BKN040 17/15 Q1026 NOSIG

Último TAF

TAF SCIP 011030Z 0112/0212 02004KT 9999 SCT020 BKN040 TX22/0119Z TN18/0209Z BECMG 0116/0118 09010KT TEMPO 0118/0203 5000 -SHRA SCT025 BKN035 OVC050 BECMG 0204/0206 09020KT 4000 SHRA BKN015 OVC020

Últimas fotos cámaras

Imagen aerodromo  Mataveri (PUB) (SCIP) S-Oeste tomada el 01-07-2022 02:33:54 Imagen aerodromo  Mataveri (PUB) (SCIP) Este tomada el 01-07-2022 02:36:32 Imagen aerodromo  Mataveri (PUB) (SCIP) Oeste tomada el 01-07-2022 02:34:00

Último NOTAM

A2276/22 NOTAMN Q)SCIZ/QMRLX/IV/NBO/A/000/999/2710S10925W005 A)SCIP B)2206152353 C)2209122200 E)RWY 10/28 CTN DUE TO HOLE ON THE ASPH COVER OF RWY WITH NXT DIMENSION: 22 CM X 04 CM X DPT 4 CM LOC APRX AT 1850M FM THR 28 AND AT 5M FM RCL TO SOUTH